Time;durP1;ratioP1;P1;durP2;ratioP2;P2;SDS_P1;SDS_P2;PMS_P1;PMS_P2;Temp;Humidity;BMP_temperature;BMP_pressure;BME280_temperature;BME280_humidity;BME280_pressure;Samples;Min_cycle;Max_cycle;Signal;HPM_P1;HPM_P2
2022/01/07 00:00:19;;;;;;;11.70;5.57;;;2.30;99.90;;;2.79;100.00;100531.03;5060147;28;20059;-80
2022/01/07 00:02:53;;;;;;;14.77;5.63;;;2.30;99.90;;;2.88;100.00;100537.44;5060176;28;20062;-80
2022/01/07 00:05:20;;;;;;;14.38;4.57;;;2.40;99.90;;;2.99;99.51;100538.81;5057587;28;20056;-77
2022/01/07 00:07:47;;;;;;;13.60;5.03;;;2.50;99.90;;;3.00;99.21;100534.94;5057275;28;20033;-80
2022/01/07 00:10:18;;;;;;;14.02;4.38;;;2.50;99.90;;;2.89;98.98;100529.97;5064883;28;20040;-78
2022/01/07 00:12:45;;;;;;;7.65;3.90;;;2.50;99.90;;;3.02;98.64;100523.59;5059949;28;20045;-79
2022/01/07 00:15:15;;;;;;;11.68;3.92;;;2.50;99.90;;;3.05;98.57;100515.50;5056299;28;20052;-78
2022/01/07 00:17:45;;;;;;;11.50;4.28;;;2.50;99.90;;;3.04;98.03;100510.31;5058542;28;20143;-80
2022/01/07 00:20:14;;;;;;;10.10;4.15;;;2.60;99.90;;;3.11;97.71;100511.50;5059523;28;20184;-79
2022/01/07 00:22:47;;;;;;;8.43;3.50;;;2.60;99.90;;;3.14;97.19;100504.56;5074961;28;20082;-80
2022/01/07 00:25:14;;;;;;;11.70;3.55;;;2.60;99.90;;;3.11;97.73;100500.47;5066571;28;20059;-80
2022/01/07 00:27:44;;;;;;;11.13;4.13;;;2.60;99.90;;;3.11;97.17;100491.38;5080135;28;20024;-81
2022/01/07 00:30:14;;;;;;;15.93;4.22;;;2.60;99.90;;;3.04;97.86;100493.75;5078948;28;20055;-80
2022/01/07 00:32:40;;;;;;;13.82;3.97;;;2.70;99.90;;;3.21;97.12;100488.38;5078008;28;20028;-79
2022/01/07 00:35:09;;;;;;;13.18;3.30;;;2.70;99.90;;;3.22;97.21;100478.13;5078515;28;20032;-80
2022/01/07 00:37:36;;;;;;;12.85;3.53;;;2.70;99.90;;;3.28;97.28;100477.69;5077614;28;20047;-79
2022/01/07 00:40:08;;;;;;;11.30;4.18;;;2.70;99.90;;;3.25;97.34;100470.06;5079012;28;20036;-78
2022/01/07 00:42:35;;;;;;;10.02;3.65;;;2.70;99.90;;;3.18;97.80;100466.91;5060610;28;20561;-79
2022/01/07 00:45:01;;;;;;;18.75;4.28;;;2.80;99.90;;;3.26;97.80;100465.34;5079475;28;20040;-79
2022/01/07 00:47:27;;;;;;;15.65;3.97;;;2.80;99.90;;;3.32;97.40;100455.81;5059884;28;20120;-81
2022/01/07 00:49:53;;;;;;;10.65;3.80;;;2.80;99.90;;;3.33;96.91;100458.28;5077498;28;20078;-77
2022/01/07 00:52:22;;;;;;;10.70;3.75;;;2.90;99.90;;;3.37;96.16;100456.50;5059895;28;20185;-80
2022/01/07 00:54:48;;;;;;;15.52;4.47;;;2.90;99.90;;;3.42;96.05;100453.63;5078921;28;20086;-77
2022/01/07 00:57:13;;;;;;;11.18;3.83;;;2.90;99.90;;;3.43;95.65;100444.22;5058228;28;20040;-78
2022/01/07 00:59:39;;;;;;;12.95;4.38;;;2.90;99.90;;;3.42;95.65;100436.22;5058366;28;20416;-79
2022/01/07 01:02:13;;;;;;;12.90;3.75;;;2.90;99.90;;;3.42;96.05;100444.50;5076797;28;20028;-78
2022/01/07 01:04:40;;;;;;;14.43;4.00;;;3.00;99.90;;;3.38;96.38;100435.22;5058374;28;20043;-79
2022/01/07 01:07:06;;;;;;;12.48;3.40;;;2.90;99.90;;;3.42;96.02;100439.81;5076428;28;20107;-79
2022/01/07 01:09:32;;;;;;;13.63;4.15;;;2.90;99.90;;;3.32;96.61;100434.53;5076129;28;20030;-78
2022/01/07 01:12:00;;;;;;;9.70;3.13;;;2.80;99.90;;;3.36;96.47;100427.28;5061593;28;20127;-81
2022/01/07 01:14:33;;;;;;;10.90;3.50;;;2.90;99.90;;;3.26;96.12;100423.94;5079997;28;20371;-79
2022/01/07 01:17:04;;;;;;;13.30;3.60;;;2.90;99.90;;;3.42;95.56;100426.00;5060664;28;20043;-79
2022/01/07 01:19:33;;;;;;;9.00;3.53;;;3.00;99.90;;;3.43;95.73;100424.88;5062379;28;20029;-79
2022/01/07 01:21:58;;;;;;;9.45;3.67;;;3.00;99.90;;;3.51;95.14;100420.53;5061570;28;20032;-77
2022/01/07 01:24:24;;;;;;;12.90;3.35;;;3.00;99.90;;;3.39;95.69;100423.06;5079438;28;20033;-78
2022/01/07 01:26:50;;;;;;;12.52;4.82;;;3.00;99.90;;;3.37;95.38;100415.06;5076924;28;20040;-78
2022/01/07 01:29:16;;;;;;;10.20;3.55;;;3.00;99.90;;;3.52;95.12;100414.69;5063367;28;20028;-79
2022/01/07 01:31:42;;;;;;;16.02;4.35;;;3.00;99.90;;;3.46;95.10;100410.44;5086610;28;20036;-76
2022/01/07 01:34:11;;;;;;;12.73;3.95;;;3.00;99.90;;;3.52;94.75;100403.66;5077689;28;20085;-78
2022/01/07 01:36:37;;;;;;;11.20;3.65;;;3.10;99.90;;;3.48;94.55;100401.84;5073770;28;20056;-79
2022/01/07 01:39:04;;;;;;;8.93;3.22;;;3.10;99.90;;;3.44;94.92;100404.41;5061666;28;20048;-78
2022/01/07 01:41:30;;;;;;;10.88;3.30;;;3.10;99.90;;;3.53;95.04;100396.19;5061204;28;20032;-79
2022/01/07 01:43:56;;;;;;;9.77;3.25;;;3.10;99.90;;;3.49;94.77;100393.25;5059312;28;20099;-79
2022/01/07 01:46:22;;;;;;;8.95;3.35;;;3.10;99.90;;;3.50;94.92;100389.34;5060109;28;20045;-80
2022/01/07 01:48:48;;;;;;;12.45;3.95;;;3.10;99.90;;;3.60;93.61;100394.59;5060105;28;20087;-79
2022/01/07 01:51:15;;;;;;;7.15;3.30;;;3.20;99.90;;;3.53;94.35;100377.66;5060148;28;20029;-79
2022/01/07 01:53:41;;;;;;;13.70;3.70;;;3.10;99.90;;;3.57;94.47;100384.19;5059683;28;20032;-79
2022/01/07 01:56:08;;;;;;;13.60;4.05;;;3.20;99.90;;;3.51;95.05;100381.88;5058970;28;20132;-78
2022/01/07 01:58:35;;;;;;;9.25;3.78;;;3.10;99.90;;;3.57;94.60;100392.47;5058190;28;20461;-77
2022/01/07 02:01:01;;;;;;;11.10;4.40;;;3.10;99.90;;;3.58;94.93;100385.00;5055599;28;20075;-79
2022/01/07 02:03:27;;;;;;;14.90;4.22;;;3.10;99.90;;;3.57;94.43;100391.63;5053523;28;20021;-80
2022/01/07 02:05:54;;;;;;;8.40;3.88;;;3.10;99.90;;;3.65;94.74;100371.53;5055538;28;20077;-79
2022/01/07 02:08:21;;;;;;;10.38;4.05;;;3.10;99.90;;;3.56;94.56;100365.97;5054536;28;20029;-80
2022/01/07 02:10:47;;;;;;;21.60;4.43;;;3.10;99.90;;;3.64;94.69;100362.44;5055368;28;20029;-78
2022/01/07 02:13:17;;;;;;;10.60;4.28;;;3.10;99.90;;;3.59;93.95;100365.34;5055961;28;20373;-82
2022/01/07 02:15:44;;;;;;;12.05;4.13;;;3.20;99.90;;;3.44;94.98;100357.47;5055713;28;20377;-79
2022/01/07 02:18:10;;;;;;;11.77;3.85;;;3.10;99.90;;;3.61;94.72;100354.78;5054016;28;20029;-81
2022/01/07 02:20:36;;;;;;;13.02;3.83;;;3.20;99.90;;;3.44;95.16;100346.44;5054984;28;20040;-82
2022/01/07 02:23:02;;;;;;;13.43;3.95;;;3.20;99.90;;;3.65;94.83;100352.22;5054698;28;20037;-79
2022/01/07 02:25:31;;;;;;;11.35;4.55;;;3.20;99.90;;;3.63;94.29;100343.41;5064260;28;20024;-79
2022/01/07 02:27:57;;;;;;;9.13;4.13;;;3.20;99.90;;;3.56;94.53;100338.34;5074105;28;20029;-78
2022/01/07 02:30:31;;;;;;;8.85;4.20;;;3.10;99.90;;;3.61;93.84;100335.47;5074627;28;20050;-77
2022/01/07 02:32:59;;;;;;;13.80;4.20;;;3.10;99.90;;;3.64;94.67;100336.78;5073437;28;20024;-79
2022/01/07 02:35:31;;;;;;;10.38;3.40;;;3.20;99.90;;;3.63;94.32;100324.91;5072922;28;20066;-77
2022/01/07 02:37:58;;;;;;;10.00;4.20;;;3.20;99.90;;;3.64;94.56;100326.53;5075056;28;20037;-81
2022/01/07 02:40:25;;;;;;;10.00;4.03;;;3.20;99.90;;;3.63;94.18;100313.84;5057228;28;20151;-80
2022/01/07 02:42:52;;;;;;;14.43;5.70;;;3.20;99.90;;;3.65;93.57;100313.56;5057727;28;20308;-79
2022/01/07 02:45:19;;;;;;;10.25;3.42;;;3.20;99.90;;;3.62;93.80;100317.78;5057395;28;20031;-83
2022/01/07 02:47:55;;;;;;;13.15;4.47;;;3.20;99.90;;;3.52;93.85;100307.00;5075369;28;20099;-81
2022/01/07 02:50:36;;;;;;;7.72;3.72;;;3.30;99.90;;;3.71;93.58;100312.25;5075763;28;20093;-79
2022/01/07 02:53:10;;;;;;;10.75;4.30;;;3.30;99.90;;;3.61;95.10;100304.28;5074218;28;20037;-79
2022/01/07 02:55:40;;;;;;;13.63;4.60;;;3.20;99.90;;;3.57;95.51;100304.09;5075800;28;20025;-80
2022/01/07 02:58:08;;;;;;;11.10;4.05;;;3.20;99.90;;;3.54;95.63;100307.50;5057871;28;20017;-82
2022/01/07 03:00:37;;;;;;;12.73;4.07;;;3.20;99.90;;;3.59;96.44;100309.31;5075667;28;20410;-79
2022/01/07 03:03:07;;;;;;;9.05;4.72;;;3.10;99.90;;;3.50;96.69;100308.47;5075349;28;20070;-81
2022/01/07 03:05:33;;;;;;;10.10;4.70;;;3.10;99.90;;;3.57;97.08;100289.47;5075910;28;20029;-78
2022/01/07 03:07:59;;;;;;;13.75;4.65;;;3.10;99.90;;;3.43;98.84;100308.13;5056521;28;20025;-81
2022/01/07 03:10:30;;;;;;;10.18;4.38;;;3.00;99.90;;;3.29;99.61;100290.84;5073418;28;20029;-79
2022/01/07 03:13:00;;;;;;;12.70;4.90;;;3.00;99.90;;;3.23;100.00;100290.16;5073713;28;20107;-81
2022/01/07 03:15:27;;;;;;;12.00;5.53;;;2.90;99.90;;;3.20;100.00;100282.53;5055718;28;20036;-80
2022/01/07 03:17:53;;;;;;;15.07;5.13;;;2.90;99.90;;;3.31;100.00;100272.03;5074252;28;20123;-81
2022/01/07 03:20:21;;;;;;;12.23;5.07;;;2.90;99.90;;;3.17;100.00;100277.66;5074121;28;20107;-80
2022/01/07 03:22:54;;;;;;;9.27;4.68;;;2.90;99.90;;;3.17;100.00;100264.66;5056172;28;20059;-81
2022/01/07 03:25:26;;;;;;;12.68;4.90;;;2.80;99.90;;;3.13;100.00;100263.66;5065924;28;20398;-81
2022/01/07 03:27:52;;;;;;;13.82;5.03;;;2.80;99.90;;;3.20;100.00;100246.66;5071253;28;20028;-81
2022/01/07 03:30:19;;;;;;;12.70;5.13;;;2.80;99.90;;;3.05;100.00;100258.13;5071433;28;20526;-82
2022/01/07 03:32:47;;;;;;;9.85;4.50;;;2.70;99.90;;;3.04;100.00;100254.53;5054524;28;20116;-81
2022/01/07 03:35:14;;;;;;;10.02;4.78;;;2.70;99.90;;;2.95;100.00;100256.44;5051088;28;20036;-81
2022/01/07 03:37:43;;;;;;;12.60;5.13;;;2.70;99.90;;;2.96;100.00;100255.28;5052168;28;20575;-80
2022/01/07 03:40:12;;;;;;;9.63;4.57;;;2.70;99.90;;;3.03;100.00;100241.88;5052000;28;20035;-78
2022/01/07 03:42:40;;;;;;;11.77;5.35;;;2.60;99.90;;;3.12;100.00;100247.41;5050476;28;20691;-82
2022/01/07 03:45:10;;;;;;;17.77;5.65;;;2.60;99.90;;;3.09;100.00;100234.25;5067143;28;20036;-82
2022/01/07 03:47:40;;;;;;;13.02;4.55;;;2.70;99.90;;;2.97;100.00;100234.88;5052055;28;20040;-81
2022/01/07 03:50:12;;;;;;;13.85;4.97;;;2.60;99.90;;;2.95;100.00;100225.28;5050646;28;20077;-82
2022/01/07 03:52:39;;;;;;;9.10;5.20;;;2.60;99.90;;;2.97;100.00;100229.34;5051819;28;20025;-83
2022/01/07 03:55:11;;;;;;;17.48;4.50;;;2.60;99.90;;;2.94;100.00;100212.63;5050706;28;20029;-82
2022/01/07 03:57:41;;;;;;;10.18;4.78;;;2.60;99.90;;;2.90;100.00;100219.88;5050851;28;20028;-83
2022/01/07 04:00:17;;;;;;;14.35;4.85;;;2.50;99.90;;;2.88;100.00;100200.91;5052216;28;20025;-82
2022/01/07 04:02:45;;;;;;;11.00;4.85;;;2.50;99.90;;;2.83;100.00;100190.00;5051572;28;20024;-80
2022/01/07 04:05:13;;;;;;;10.77;5.15;;;2.50;99.90;;;2.80;100.00;100189.81;5051153;28;20029;-82
2022/01/07 04:07:39;;;;;;;9.68;4.38;;;2.40;99.90;;;2.79;100.00;100180.75;5052983;28;20041;-81
2022/01/07 04:10:08;;;;;;;12.02;5.63;;;2.40;99.90;;;2.82;100.00;100177.38;5053309;28;20028;-81
2022/01/07 04:12:37;;;;;;;10.20;4.60;;;2.40;99.90;;;2.78;100.00;100175.56;5050122;28;20033;-82
2022/01/07 04:15:09;;;;;;;10.88;4.40;;;2.40;99.90;;;2.77;100.00;100171.16;5056800;28;20116;-80
2022/01/07 04:17:43;;;;;;;10.30;4.40;;;2.40;99.90;;;2.73;100.00;100178.47;5070261;28;20029;-83
2022/01/07 04:20:15;;;;;;;13.20;4.75;;;2.40;99.90;;;2.77;100.00;100165.63;5057699;28;20033;-84
2022/01/07 04:22:42;;;;;;;14.75;5.10;;;2.40;99.90;;;2.58;100.00;100155.69;5056047;28;20031;-82
2022/01/07 04:25:17;;;;;;;11.68;4.53;;;2.30;99.90;;;2.59;100.00;100156.50;5058989;28;20107;-79
2022/01/07 04:27:59;;;;;;;10.20;4.53;;;2.30;99.90;;;2.72;100.00;100144.56;5073566;28;20025;-81
2022/01/07 04:30:34;;;;;;;11.63;4.70;;;2.30;99.90;;;2.66;100.00;100146.63;5074088;28;20025;-82
2022/01/07 04:33:04;;;;;;;10.65;4.90;;;2.30;99.90;;;2.76;100.00;100137.25;5073973;28;20025;-80
2022/01/07 04:35:33;;;;;;;12.00;4.70;;;2.30;99.90;;;2.69;100.00;100141.63;5071274;28;20403;-83
2022/01/07 04:38:00;;;;;;;9.48;3.88;;;2.30;99.90;;;2.76;100.00;100136.47;5072682;28;20079;-81
2022/01/07 04:40:29;;;;;;;10.45;4.35;;;2.30;99.90;;;2.82;100.00;100136.00;5070805;28;20053;-81
2022/01/07 04:42:56;;;;;;;9.43;4.57;;;2.30;99.90;;;2.78;100.00;100128.66;5072618;28;20033;-82
2022/01/07 04:45:21;;;;;;;8.23;4.68;;;2.30;99.90;;;2.80;100.00;100129.97;5056198;28;20033;-83
2022/01/07 04:47:48;;;;;;;11.95;4.93;;;2.40;99.90;;;2.73;100.00;100132.38;5058975;28;20031;-83
2022/01/07 04:50:22;;;;;;;11.13;5.75;;;2.40;99.90;;;2.72;100.00;100140.97;5075817;28;20025;-82
2022/01/07 04:52:50;;;;;;;12.02;4.65;;;2.40;99.90;;;2.81;100.00;100133.53;5058939;28;20037;-82
2022/01/07 04:55:29;;;;;;;9.88;4.32;;;2.40;99.90;;;2.87;100.00;100124.00;5077433;28;20043;-81
2022/01/07 04:57:56;;;;;;;10.88;4.22;;;2.40;99.90;;;2.84;100.00;100143.94;5076889;28;20020;-82
2022/01/07 05:00:24;;;;;;;8.13;3.92;;;2.40;99.90;;;2.82;100.00;100122.22;5075719;28;20519;-83
2022/01/07 05:02:50;;;;;;;11.35;4.03;;;2.50;99.90;;;2.80;100.00;100123.63;5058924;28;20509;-82
2022/01/07 05:05:16;;;;;;;10.25;3.60;;;2.50;99.90;;;2.93;100.00;100125.47;5075417;28;20504;-81
2022/01/07 05:07:42;;;;;;;10.45;3.83;;;2.50;99.90;;;2.88;100.00;100120.09;5058081;28;20043;-84
2022/01/07 05:10:13;;;;;;;9.65;3.70;;;2.50;99.90;;;2.92;100.00;100115.59;5076341;28;20025;-82
2022/01/07 05:12:42;;;;;;;8.07;3.75;;;2.50;99.90;;;2.99;100.00;100122.25;5058604;28;20025;-80
2022/01/07 05:15:11;;;;;;;10.77;4.15;;;2.50;99.90;;;3.04;100.00;100110.25;5059361;28;20166;-79
2022/01/07 05:17:37;;;;;;;9.85;4.40;;;2.60;99.90;;;3.04;100.00;100118.53;5075648;28;20036;-81
2022/01/07 05:20:05;;;;;;;10.13;3.75;;;2.50;99.90;;;2.94;100.00;100118.81;5059787;28;20400;-84
2022/01/07 05:22:31;;;;;;;6.22;3.40;;;2.60;99.90;;;3.01;100.00;100130.22;5076896;28;20039;-79
2022/01/07 05:24:57;;;;;;;7.53;3.70;;;2.60;99.90;;;2.92;100.00;100110.84;5073518;28;20036;-82
2022/01/07 05:27:23;;;;;;;9.82;3.85;;;2.60;99.90;;;3.04;100.00;100115.78;5056422;28;20021;-82
2022/01/07 05:29:49;;;;;;;10.00;3.85;;;2.60;99.90;;;3.01;100.00;100110.91;5060439;28;20028;-80
2022/01/07 05:32:15;;;;;;;9.55;3.72;;;2.60;99.90;;;2.92;100.00;100116.38;5073317;28;20032;-81
2022/01/07 05:34:41;;;;;;;11.70;3.92;;;2.60;99.90;;;2.96;100.00;100108.28;5059565;28;20025;-80
2022/01/07 05:37:09;;;;;;;7.50;4.05;;;2.60;99.90;;;2.96;100.00;100111.03;5058535;28;20086;-83
2022/01/07 05:39:35;;;;;;;7.45;3.35;;;2.60;99.90;;;3.01;100.00;100106.19;5072834;28;20048;-83
2022/01/07 05:42:05;;;;;;;8.93;3.53;;;2.60;99.90;;;3.07;100.00;100106.84;5055503;28;20036;-83
2022/01/07 05:44:38;;;;;;;9.77;3.75;;;2.60;99.90;;;3.00;100.00;100101.00;5065524;28;20021;-84
2022/01/07 05:47:04;;;;;;;9.63;3.83;;;2.60;99.90;;;3.07;100.00;100107.66;5092023;28;20041;-84
2022/01/07 05:49:30;;;;;;;9.63;3.92;;;2.60;99.90;;;3.04;100.00;100097.28;5074638;28;20032;-81
2022/01/07 05:51:56;;;;;;;8.27;4.03;;;2.60;99.90;;;3.07;100.00;100102.16;5055570;28;20036;-79
2022/01/07 05:54:22;;;;;;;10.23;4.00;;;2.60;99.90;;;3.06;100.00;100095.00;5056978;28;20044;-81
2022/01/07 05:56:48;;;;;;;9.73;4.78;;;2.70;99.90;;;3.08;100.00;100095.47;5055543;28;20025;-80
2022/01/07 05:59:14;;;;;;;9.88;3.65;;;2.70;99.90;;;3.07;100.00;100093.06;5055849;28;20037;-82
2022/01/07 06:01:40;;;;;;;7.47;3.97;;;2.60;99.90;;;3.10;100.00;100086.91;5057475;28;20096;-82
2022/01/07 06:04:06;;;;;;;11.65;3.55;;;2.70;99.90;;;3.11;100.00;100091.28;5055958;28;20040;-81
2022/01/07 06:06:32;;;;;;;16.58;4.45;;;2.70;99.90;;;3.02;100.00;100093.19;5055529;28;20044;-82
2022/01/07 06:08:58;;;;;;;7.93;3.33;;;2.70;99.90;;;3.13;100.00;100078.78;5055446;28;20029;-81
2022/01/07 06:11:23;;;;;;;8.23;3.42;;;2.70;99.90;;;3.10;100.00;100084.13;5056798;28;20028;-80
2022/01/07 06:13:55;;;;;;;8.13;3.70;;;2.60;99.90;;;3.03;100.00;100086.56;5056280;28;20071;-79
2022/01/07 06:16:21;;;;;;;7.82;3.63;;;2.60;99.90;;;3.04;100.00;100080.72;5055023;28;20033;-79
2022/01/07 06:19:20;;;;;;;12.48;4.70;;;2.60;99.90;;;2.99;100.00;100080.03;5056752;28;20404;-79
2022/01/07 06:21:39;;;;;;;8.73;3.47;;;2.60;99.90;;;2.90;100.00;100084.72;5055697;28;20055;-81
2022/01/07 06:24:06;;;;;;;7.68;4.28;;;2.50;99.90;;;2.85;100.00;100084.91;5057073;28;20037;-83
2022/01/07 06:26:33;;;;;;;12.40;3.83;;;2.50;99.90;;;2.85;100.00;100087.66;5059076;28;20060;-82
2022/01/07 06:28:59;;;;;;;8.70;3.78;;;2.40;99.90;;;2.80;100.00;100091.34;5059137;28;20032;-81
2022/01/07 06:31:24;;;;;;;10.85;3.63;;;2.40;99.90;;;2.83;100.00;100087.97;5078016;28;20028;-80
2022/01/07 06:33:50;;;;;;;10.70;4.20;;;2.40;99.90;;;2.69;100.00;100075.44;5077293;28;20067;-83
2022/01/07 06:36:19;;;;;;;12.00;3.53;;;2.30;99.90;;;2.67;100.00;100084.00;5075845;28;20063;-80
2022/01/07 06:38:44;;;;;;;12.32;4.53;;;2.30;99.90;;;2.77;100.00;100083.72;5074740;28;20063;-84
2022/01/07 06:41:10;;;;;;;13.05;4.18;;;2.30;99.90;;;2.76;100.00;100089.59;5074671;28;20032;-82
2022/01/07 06:43:36;;;;;;;11.55;4.15;;;2.30;99.90;;;2.77;100.00;100091.19;5055429;28;20040;-82
2022/01/07 06:46:06;;;;;;;10.02;3.72;;;2.30;99.90;;;2.68;100.00;100077.38;5073894;28;20560;-82
2022/01/07 06:48:34;;;;;;;11.32;4.57;;;2.30;99.90;;;2.73;100.00;100079.19;5056181;28;20162;-84
2022/01/07 06:51:00;;;;;;;9.60;4.28;;;2.30;99.90;;;2.78;100.00;100076.28;5061604;28;20036;-85
2022/01/07 06:53:28;;;;;;;13.43;4.05;;;2.40;99.90;;;2.83;100.00;100078.88;5085641;28;20032;-83
2022/01/07 06:55:58;;;;;;;5.47;3.47;;;2.40;99.90;;;2.72;100.00;100085.81;5061357;28;20403;-80
2022/01/07 06:58:25;;;;;;;9.25;4.68;;;2.40;99.90;;;2.78;100.00;100082.59;5057600;28;20139;-81
2022/01/07 07:00:51;;;;;;;8.15;3.65;;;2.40;99.90;;;2.72;100.00;100077.56;5072625;28;20033;-81
2022/01/07 07:03:18;;;;;;;9.10;3.83;;;2.30;99.90;;;2.70;100.00;100079.84;5073743;28;20047;-82
2022/01/07 07:05:44;;;;;;;8.70;3.97;;;2.30;99.90;;;2.85;100.00;100091.22;5073501;28;20060;-81
2022/01/07 07:08:10;;;;;;;6.85;3.63;;;2.30;99.90;;;2.84;100.00;100083.25;5073275;28;20415;-77
2022/01/07 07:10:36;;;;;;;9.57;3.88;;;2.30;99.90;;;2.72;100.00;100074.78;5053988;28;20028;-81
2022/01/07 07:13:02;;;;;;;8.05;4.03;;;2.30;99.90;;;2.67;100.00;100078.50;5072670;28;20122;-81
2022/01/07 07:15:28;;;;;;;9.30;4.93;;;2.30;99.90;;;2.70;100.00;100086.13;5055100;28;20039;-82
2022/01/07 07:17:57;;;;;;;8.75;3.40;;;2.30;99.90;;;2.64;100.00;100082.72;5075526;28;20402;-81
2022/01/07 07:20:23;;;;;;;7.32;3.97;;;2.30;99.90;;;2.76;100.00;100082.09;5074827;28;20032;-79
2022/01/07 07:22:49;;;;;;;7.90;4.00;;;2.30;99.90;;;2.72;100.00;100081.13;5075326;28;20028;-80
2022/01/07 07:25:15;;;;;;;5.53;4.15;;;2.30;99.90;;;2.76;100.00;100082.09;5069753;28;20083;-80
2022/01/07 07:27:41;;;;;;;7.15;4.32;;;2.30;99.90;;;2.71;100.00;100073.97;5055622;28;20419;-80
2022/01/07 07:30:11;;;;;;;5.25;3.70;;;2.30;99.90;;;2.82;100.00;100080.84;5056190;28;20028;-83
2022/01/07 07:32:38;;;;;;;7.03;3.90;;;2.30;99.90;;;2.78;100.00;100079.03;5055942;28;20033;-81
2022/01/07 07:37:43;;;;;;;5.90;3.75;;;2.40;99.90;;;2.84;100.00;100095.13;5057174;28;20103;-82
2022/01/07 07:40:11;;;;;;;5.78;3.67;;;2.40;99.90;;;2.88;100.00;100085.06;5057701;28;20040;-78
2022/01/07 07:42:39;;;;;;;9.07;3.55;;;2.40;99.90;;;2.95;100.00;100085.41;5055531;28;20489;-80
2022/01/07 07:45:06;;;;;;;4.80;3.72;;;2.50;99.90;;;2.98;100.00;100098.56;5073054;28;20074;-83
2022/01/07 07:47:35;;;;;;;7.32;3.95;;;2.50;99.90;;;2.93;100.00;100100.63;5057367;28;20043;-80
2022/01/07 07:50:03;;;;;;;6.10;3.75;;;2.50;99.90;;;3.01;100.00;100094.34;5057481;28;20104;-79
2022/01/07 07:52:28;;;;;;;7.80;3.65;;;2.50;99.90;;;3.04;100.00;100097.28;5056567;28;20097;-80
2022/01/07 07:54:54;;;;;;;6.38;3.47;;;2.60;99.90;;;2.97;100.00;100090.59;5056451;28;20033;-82
2022/01/07 07:57:20;;;;;;;5.10;3.53;;;2.60;99.90;;;3.08;100.00;100087.19;5072688;28;20043;-81
2022/01/07 07:59:46;;;;;;;6.40;3.20;;;2.60;99.90;;;2.95;100.00;100101.97;5072537;28;20033;-81
2022/01/07 08:02:18;;;;;;;7.97;4.18;;;2.60;99.90;;;3.08;100.00;100083.66;5056534;28;20052;-79
2022/01/07 08:04:44;;;;;;;9.00;3.80;;;2.70;99.90;;;3.15;100.00;100083.97;5057038;28;20043;-81
2022/01/07 08:07:16;;;;;;;6.22;3.90;;;2.70;99.90;;;3.11;100.00;100094.84;5058065;28;20141;-85
2022/01/07 08:09:43;;;;;;;5.97;4.05;;;2.70;99.90;;;3.04;100.00;100082.66;5057729;28;20021;-81
2022/01/07 08:12:20;;;;;;;7.95;4.30;;;2.70;99.90;;;3.14;100.00;100083.19;5056820;28;20055;-80
2022/01/07 08:17:30;;;;;;;7.65;3.50;;;2.70;99.90;;;3.20;100.00;100083.81;5059078;28;20377;-83
2022/01/07 08:19:56;;;;;;;8.95;3.90;;;2.80;99.90;;;3.22;100.00;100083.50;5059810;28;20025;-82
2022/01/07 08:22:22;;;;;;;8.07;3.80;;;2.80;99.90;;;3.33;100.00;100079.28;5062143;28;20029;-87
2022/01/07 08:24:48;;;;;;;5.45;3.92;;;2.80;99.90;;;3.36;100.00;100092.44;5064392;28;20047;-84
2022/01/07 08:27:21;;;;;;;6.35;4.25;;;2.90;99.90;;;3.37;100.00;100086.59;5063796;28;20426;-85
2022/01/07 08:29:47;;;;;;;9.43;3.75;;;2.90;99.90;;;3.44;100.00;100086.09;5081757;28;20033;-80
2022/01/07 08:35:00;;;;;;;7.93;4.07;;;3.00;99.90;;;3.40;100.00;100101.72;5080953;28;20115;-82
2022/01/07 08:37:28;;;;;;;8.38;3.83;;;3.00;99.90;;;3.39;100.00;100100.06;5063069;28;20032;-82
2022/01/07 08:39:56;;;;;;;8.10;3.58;;;3.00;99.90;;;3.46;100.00;100097.66;5080028;28;20025;-82
2022/01/07 08:42:25;;;;;;;7.03;3.90;;;3.00;99.90;;;3.48;100.00;100098.13;5079758;28;20127;-82
2022/01/07 08:44:54;;;;;;;6.70;4.35;;;3.00;99.90;;;3.53;100.00;100098.78;5062123;28;20033;-82
2022/01/07 08:47:24;;;;;;;9.85;4.10;;;3.00;99.90;;;3.57;100.00;100102.50;5062247;28;20174;-81
2022/01/07 08:49:52;;;;;;;10.88;4.70;;;3.10;99.90;;;3.58;100.00;100104.16;5077809;28;20411;-81
2022/01/07 08:52:20;;;;;;;8.90;4.72;;;3.10;99.90;;;3.54;100.00;100096.81;5061947;28;20032;-79
2022/01/07 08:54:50;;;;;;;12.48;5.30;;;3.10;99.90;;;3.67;100.00;100093.09;5077796;28;20486;-79
2022/01/07 08:57:20;;;;;;;12.95;4.88;;;3.10;99.90;;;3.66;100.00;100092.28;5078637;28;20483;-80
2022/01/07 08:59:51;;;;;;;11.57;4.90;;;3.20;99.90;;;3.64;100.00;100082.69;5078468;28;20033;-80
2022/01/07 09:02:18;;;;;;;10.68;5.20;;;3.20;99.90;;;3.52;100.00;100080.59;5060967;28;20459;-80
2022/01/07 09:04:44;;;;;;;8.45;4.47;;;3.10;99.90;;;3.62;100.00;100079.47;5078295;28;20021;-81
2022/01/07 09:07:10;;;;;;;12.00;4.57;;;3.20;99.90;;;3.58;100.00;100071.00;5060609;28;20043;-80
2022/01/07 09:09:35;;;;;;;9.10;4.35;;;3.20;99.90;;;3.66;100.00;100064.66;5059849;28;20029;-81
2022/01/07 09:12:04;;;;;;;8.60;5.28;;;3.20;99.90;;;3.61;100.00;100064.03;5060587;28;20085;-81
2022/01/07 09:14:30;;;;;;;9.98;4.40;;;3.20;99.90;;;3.80;100.00;100061.72;5078252;28;20426;-80
2022/01/07 09:17:00;;;;;;;8.88;5.05;;;3.30;99.90;;;3.84;100.00;100059.94;5078472;28;20422;-83
2022/01/07 09:19:28;;;;;;;9.82;5.00;;;3.40;99.90;;;3.94;100.00;100056.84;5061356;28;20111;-81
2022/01/07 09:21:56;;;;;;;7.05;4.53;;;3.40;99.90;;;3.88;100.00;100065.63;5079773;28;20487;-80
2022/01/07 09:24:29;;;;;;;8.40;4.68;;;3.40;99.90;;;3.84;100.00;100054.41;5080660;28;20024;-83
2022/01/07 09:26:57;;;;;;;9.80;4.43;;;3.40;99.90;;;4.00;100.00;100071.28;5043545;28;20032;-79
2022/01/07 09:29:24;;;;;;;8.90;4.82;;;3.50;99.90;;;4.03;100.00;100068.69;5054679;28;20040;-83
2022/01/07 09:31:55;;;;;;;9.45;4.60;;;3.50;99.90;;;4.01;100.00;100061.84;5050213;28;20076;-80
2022/01/07 09:34:21;;;;;;;8.02;4.38;;;3.50;99.90;;;4.00;100.00;100074.88;5024608;28;20038;-78
2022/01/07 09:36:50;;;;;;;6.05;4.00;;;3.50;99.90;;;4.07;100.00;100066.88;5040789;28;20033;-81
2022/01/07 09:39:16;;;;;;;8.15;4.22;;;3.60;99.90;;;4.12;100.00;100071.41;5039604;28;20116;-82
2022/01/07 09:41:45;;;;;;;7.50;4.32;;;3.60;99.90;;;4.12;100.00;100069.47;5038981;28;20060;-82
2022/01/07 09:44:14;;;;;;;6.05;3.42;;;3.70;99.90;;;4.25;100.00;100067.63;5020302;28;20028;-83
2022/01/07 09:46:43;;;;;;;8.20;4.10;;;3.70;99.90;;;4.44;100.00;100064.47;5042306;28;20022;-81
2022/01/07 09:49:10;;;;;;;8.77;4.47;;;3.90;99.90;;;4.36;100.00;100063.38;5039817;28;20021;-82
2022/01/07 09:51:41;;;;;;;8.02;4.57;;;3.90;99.90;;;4.28;100.00;100069.72;5057320;28;20097;-76
2022/01/07 09:54:07;;;;;;;6.78;3.70;;;3.90;99.90;;;4.42;100.00;100075.88;5042670;28;20041;-80
2022/01/07 09:56:34;;;;;;;7.47;3.92;;;3.90;99.90;;;4.23;100.00;100075.44;5022211;28;20037;-80
2022/01/07 09:59:04;;;;;;;6.10;4.07;;;3.80;99.90;;;4.25;100.00;100079.50;5021123;28;20030;-80
2022/01/07 10:01:51;;;;;;;8.85;4.13;;;3.80;99.90;;;4.34;100.00;100085.00;5038769;28;20108;-82
2022/01/07 10:04:42;;;;;;;10.68;4.30;;;3.80;99.90;;;4.28;100.00;100075.25;5019794;28;20099;-79
2022/01/07 10:07:29;;;;;;;8.77;3.65;;;3.80;99.90;;;4.30;100.00;100073.00;5020797;28;20030;-79
2022/01/07 10:10:16;;;;;;;5.60;3.30;;;3.80;99.90;;;4.16;100.00;100080.66;5038625;28;20022;-80
2022/01/07 10:13:04;;;;;;;6.93;3.80;;;3.70;99.90;;;4.21;100.00;100064.72;5020722;28;20048;-79
2022/01/07 10:15:38;;;;;;;6.43;4.03;;;3.80;99.90;;;4.25;100.00;100054.63;5019902;28;20056;-80
2022/01/07 10:18:12;;;;;;;7.13;3.90;;;3.80;99.90;;;4.22;100.00;100049.75;5038501;28;20021;-81
2022/01/07 10:20:43;;;;;;;8.02;4.47;;;3.80;99.90;;;4.24;100.00;100063.22;5038950;28;20025;-81
2022/01/07 10:23:26;;;;;;;4.70;3.63;;;3.80;99.90;;;4.33;100.00;100066.00;5040108;28;20037;-80
2022/01/07 10:25:57;;;;;;;8.38;5.10;;;3.80;99.90;;;4.29;100.00;100056.72;5043365;28;20036;-81
2022/01/07 10:28:33;;;;;;;7.50;4.05;;;3.80;99.90;;;4.35;100.00;100047.91;5079071;28;20040;-81
2022/01/07 10:31:02;;;;;;;7.63;3.50;;;3.90;99.90;;;4.42;100.00;100039.13;5076479;28;20020;-81